createdAt,value
2016-12-04T00:00:06.986Z,0
2016-12-04T00:01:17.011Z,0
2016-12-04T00:02:27.033Z,0
2016-12-04T00:03:37.052Z,0
2016-12-04T00:04:47.386Z,0
2016-12-04T00:05:57.414Z,0
2016-12-04T00:07:07.418Z,0
2016-12-04T00:08:17.766Z,0
2016-12-04T00:09:28.107Z,0
2016-12-04T00:10:37.819Z,0
2016-12-04T00:11:47.832Z,0
2016-12-04T00:12:57.849Z,0
2016-12-04T00:14:07.548Z,0
2016-12-04T00:15:17.881Z,0
2016-12-04T00:16:28.253Z,0
2016-12-04T00:17:38.579Z,0
2016-12-04T00:18:48.944Z,0
2016-12-04T00:19:59.272Z,0
2016-12-04T00:21:09.628Z,0
2016-12-04T00:22:19.947Z,0
2016-12-04T00:23:29.968Z,0
2016-12-04T00:24:39.985Z,0
2016-12-04T00:25:50.306Z,0
2016-12-04T00:27:00.313Z,0
2016-12-04T00:28:10.358Z,0
2016-12-04T00:29:20.375Z,0
2016-12-04T00:30:30.093Z,0
2016-12-04T00:31:40.102Z,0
2016-12-04T00:32:50.112Z,0
2016-12-04T00:34:00.139Z,0
2016-12-04T00:35:10.468Z,0
2016-12-04T00:36:20.495Z,0
2016-12-04T00:37:30.842Z,0
2016-12-04T00:38:41.174Z,0
2016-12-04T00:39:51.185Z,0
2016-12-04T00:41:01.189Z,0
2016-12-04T00:42:11.551Z,0
2016-12-04T00:43:21.881Z,0
2016-12-04T00:44:31.578Z,0
2016-12-04T00:45:41.927Z,0
2016-12-04T00:46:51.938Z,0
2016-12-04T00:48:02.262Z,0
2016-12-04T00:49:11.966Z,0
2016-12-04T00:50:21.967Z,0
2016-12-04T00:51:31.976Z,0
2016-12-04T00:52:42.296Z,0
2016-12-04T00:53:52.624Z,0
2016-12-04T00:55:02.951Z,0
2016-12-04T00:56:13.268Z,0
2016-12-04T00:57:23.602Z,0
2016-12-04T00:58:33.924Z,0
2016-12-04T00:59:43.646Z,0
2016-12-04T01:00:53.362Z,0
2016-12-04T01:02:03.685Z,0
2016-12-04T01:03:14.008Z,0
2016-12-04T01:04:24.333Z,0
2016-12-04T01:05:34.380Z,0
2016-12-04T01:06:44.378Z,0
2016-12-04T01:07:54.708Z,0
2016-12-04T01:09:05.030Z,0
2016-12-04T01:10:15.043Z,0
2016-12-04T01:11:25.059Z,0
2016-12-04T01:12:35.421Z,0
2016-12-04T01:13:45.739Z,0
2016-12-04T01:14:55.139Z,0
2016-12-04T01:16:04.871Z,0
2016-12-04T01:17:14.592Z,0
2016-12-04T01:18:24.282Z,0
2016-12-04T01:19:34.596Z,0
2016-12-04T01:20:44.912Z,0
2016-12-04T01:21:54.915Z,0
2016-12-04T01:23:04.605Z,0
2016-12-04T01:24:14.617Z,0
2016-12-04T01:25:24.623Z,0
2016-12-04T01:26:34.634Z,0
2016-12-04T01:27:44.661Z,0
2016-12-04T01:28:54.668Z,0
2016-12-04T01:30:04.986Z,0
2016-12-04T01:31:14.987Z,0
2016-12-04T01:32:25.309Z,0
2016-12-04T01:33:35.307Z,0
2016-12-04T01:34:45.008Z,0
2016-12-04T01:35:55.008Z,0
2016-12-04T01:37:05.032Z,0
2016-12-04T01:38:15.378Z,0
2016-12-04T01:39:25.703Z,0
2016-12-04T01:40:36.035Z,0
2016-12-04T01:41:46.344Z,0
2016-12-04T01:42:56.663Z,0
2016-12-04T01:44:06.705Z,0
2016-12-04T01:45:16.713Z,0
2016-12-04T01:46:27.030Z,0
2016-12-04T01:47:37.047Z,0
2016-12-04T01:48:47.362Z,0
2016-12-04T01:49:57.360Z,0
2016-12-04T01:51:07.707Z,0
2016-12-04T01:52:18.034Z,0
2016-12-04T01:53:28.636Z,0
2016-12-04T01:54:38.666Z,0
2016-12-04T01:55:48.673Z,0
2016-12-04T01:56:58.695Z,0
2016-12-04T01:58:09.023Z,0
2016-12-04T01:59:19.368Z,0
2016-12-04T02:00:29.688Z,0
2016-12-04T02:01:40.026Z,0
2016-12-04T02:02:50.339Z,0
2016-12-04T02:04:00.656Z,0
2016-12-04T02:05:10.687Z,0
2016-12-04T02:06:20.098Z,0
2016-12-04T02:07:30.427Z,0
2016-12-04T02:08:40.749Z,0
2016-12-04T02:09:51.069Z,0
2016-12-04T02:11:01.071Z,0
2016-12-04T02:12:11.088Z,0
2016-12-04T02:13:20.823Z,0
2016-12-04T02:14:30.842Z,0
2016-12-04T02:15:41.188Z,0
2016-12-04T02:16:51.499Z,0
2016-12-04T02:18:01.506Z,0
2016-12-04T02:19:11.824Z,0
2016-12-04T02:20:21.825Z,0
2016-12-04T02:21:32.140Z,0
2016-12-04T02:22:42.478Z,0
2016-12-04T02:23:52.498Z,0
2016-12-04T02:25:02.868Z,0
2016-12-04T02:26:12.889Z,0
2016-12-04T02:27:22.916Z,0
2016-12-04T02:28:32.621Z,0
2016-12-04T02:29:42.622Z,0
2016-12-04T02:30:52.356Z,0
2016-12-04T02:32:02.373Z,0
2016-12-04T02:33:12.374Z,0
2016-12-04T02:34:22.958Z,0
2016-12-04T02:35:33.273Z,0
2016-12-04T02:36:43.310Z,0
2016-12-04T02:37:53.316Z,0
2016-12-04T02:39:03.027Z,0
2016-12-04T02:40:13.043Z,0
2016-12-04T02:41:23.360Z,0
2016-12-04T02:42:33.682Z,0
2016-12-04T02:43:43.687Z,0
2016-12-04T02:44:53.691Z,0
2016-12-04T02:46:04.022Z,0
2016-12-04T02:47:14.023Z,0
2016-12-04T02:48:23.723Z,0
2016-12-04T02:49:34.031Z,0
2016-12-04T02:50:44.399Z,0
2016-12-04T02:51:54.735Z,0
2016-12-04T02:53:04.751Z,0
2016-12-04T02:54:14.797Z,0
2016-12-04T02:55:24.803Z,0
2016-12-04T02:56:35.126Z,0
2016-12-04T02:57:44.512Z,0
2016-12-04T02:58:54.524Z,0
2016-12-04T03:00:04.847Z,0
2016-12-04T03:01:14.542Z,0
2016-12-04T03:32:42.617Z,0
2016-12-04T03:33:52.610Z,0
2016-12-04T03:35:02.635Z,0
2016-12-04T03:36:12.951Z,0
2016-12-04T03:37:23.271Z,0
2016-12-04T03:38:32.979Z,0
2016-12-04T03:39:43.301Z,0
2016-12-04T03:40:53.292Z,0
2016-12-04T03:42:03.293Z,0
2016-12-04T03:43:13.301Z,0
2016-12-04T03:44:23.312Z,0
2016-12-04T03:45:33.640Z,0
2016-12-04T03:46:43.970Z,0
2016-12-04T03:47:53.968Z,0
2016-12-04T03:49:03.999Z,0
2016-12-04T03:50:14.009Z,0
2016-12-04T03:51:24.324Z,0
2016-12-04T03:52:34.646Z,0
2016-12-04T03:53:44.689Z,0
2016-12-04T03:54:54.690Z,0
2016-12-04T03:56:04.128Z,0
2016-12-04T03:57:14.470Z,0
2016-12-04T03:58:24.797Z,0
2016-12-04T03:59:34.499Z,0
2016-12-04T04:00:44.515Z,0
2016-12-04T04:01:54.822Z,0
2016-12-04T04:03:04.847Z,0
2016-12-04T04:04:14.851Z,0
2016-12-04T04:05:25.192Z,0
2016-12-04T04:06:34.899Z,0
2016-12-04T04:07:45.218Z,0
2016-12-04T04:08:55.537Z,0
2016-12-04T04:10:05.539Z,0
2016-12-04T04:11:15.866Z,0
2016-12-04T04:12:25.858Z,0
2016-12-04T04:13:36.190Z,0
2016-12-04T04:14:46.520Z,0
2016-12-04T04:15:56.849Z,0
2016-12-04T04:17:07.178Z,0
2016-12-04T04:18:17.496Z,0
2016-12-04T04:19:27.836Z,0
2016-12-04T04:20:37.835Z,0
2016-12-04T04:21:47.861Z,0
2016-12-04T04:22:58.186Z,0
2016-12-04T04:24:08.534Z,0
2016-12-04T04:25:18.856Z,0
2016-12-04T04:26:28.559Z,0
2016-12-04T04:27:38.876Z,0
2016-12-04T04:28:49.197Z,0
2016-12-04T04:29:59.219Z,0
2016-12-04T04:31:09.581Z,0
2016-12-04T04:32:19.901Z,0
2016-12-04T04:33:29.925Z,0
2016-12-04T04:34:40.240Z,0
2016-12-04T04:35:50.568Z,0
2016-12-04T04:37:00.905Z,0
2016-12-04T04:38:11.235Z,0
2016-12-04T04:39:21.548Z,0
2016-12-04T04:40:31.254Z,0
2016-12-04T04:41:41.590Z,0
2016-12-04T04:42:51.603Z,0
2016-12-04T04:44:01.936Z,0
2016-12-04T04:45:12.252Z,0
2016-12-04T04:46:22.573Z,0
2016-12-04T04:47:32.580Z,0
2016-12-04T04:48:42.891Z,0
2016-12-04T04:49:53.200Z,0
2016-12-04T04:51:03.221Z,0
2016-12-04T04:52:13.533Z,0
2016-12-04T04:53:23.841Z,0
2016-12-04T04:54:33.552Z,0
2016-12-04T04:55:43.887Z,0
2016-12-04T04:56:53.594Z,0
2016-12-04T04:58:03.606Z,0
2016-12-04T04:59:13.617Z,0
2016-12-04T05:00:23.329Z,0
2016-12-04T05:01:33.340Z,0
2016-12-04T05:02:43.668Z,0
2016-12-04T05:03:53.376Z,0
2016-12-04T05:05:03.385Z,0
2016-12-04T05:06:13.427Z,0
2016-12-04T05:07:23.763Z,0
2016-12-04T05:08:33.802Z,0
2016-12-04T05:09:43.820Z,0
2016-12-04T05:10:53.561Z,0
2016-12-04T05:12:03.271Z,0
2016-12-04T05:13:13.591Z,0
2016-12-04T05:14:23.296Z,0
2016-12-04T05:15:33.308Z,0
2016-12-04T05:16:43.634Z,0
2016-12-04T05:17:53.940Z,0
2016-12-04T05:19:03.644Z,0
2016-12-04T05:20:14.208Z,0
2016-12-04T05:21:24.226Z,0
2016-12-04T05:22:34.259Z,0
2016-12-04T05:23:44.280Z,0
2016-12-04T05:24:54.586Z,0
2016-12-04T05:26:04.928Z,0
2016-12-04T05:27:15.249Z,0
2016-12-04T05:28:25.276Z,0
2016-12-04T05:29:35.291Z,0
2016-12-04T05:30:45.615Z,0
2016-12-04T05:31:55.632Z,0
2016-12-04T05:33:05.642Z,0
2016-12-04T05:34:15.336Z,0
2016-12-04T05:35:25.026Z,0
2016-12-04T05:36:34.718Z,0
2016-12-04T05:37:45.030Z,0
2016-12-04T05:38:54.726Z,0
2016-12-04T05:40:04.424Z,0
2016-12-04T05:41:14.746Z,0
2016-12-04T05:42:24.756Z,0
2016-12-04T05:43:35.077Z,0
2016-12-04T05:44:45.403Z,0
2016-12-04T05:45:55.751Z,0
2016-12-04T05:47:06.086Z,0
2016-12-04T05:48:16.101Z,0
2016-12-04T05:49:26.417Z,0
2016-12-04T05:50:36.743Z,4
2016-12-04T05:51:46.445Z,4
2016-12-04T05:52:56.744Z,4
2016-12-04T05:54:07.073Z,0
2016-12-04T05:55:17.393Z,0
2016-12-04T05:56:27.407Z,4
2016-12-04T05:57:37.727Z,4
2016-12-04T05:58:47.411Z,4
2016-12-04T05:59:57.416Z,4
2016-12-04T06:01:07.738Z,4
2016-12-04T06:02:18.046Z,8
2016-12-04T06:03:28.056Z,8
2016-12-04T06:04:38.062Z,8
2016-12-04T06:05:48.075Z,8
2016-12-04T06:06:58.401Z,12
2016-12-04T06:08:08.407Z,16
2016-12-04T06:09:18.764Z,16
2016-12-04T06:10:29.070Z,20
2016-12-04T06:11:39.071Z,24
2016-12-04T06:12:49.391Z,24
2016-12-04T06:13:59.085Z,32
2016-12-04T06:15:09.415Z,36
2016-12-04T06:16:19.740Z,44
2016-12-04T06:17:29.756Z,48
2016-12-04T06:18:39.769Z,56
2016-12-04T06:19:50.101Z,64
2016-12-04T06:21:00.157Z,72
2016-12-04T06:22:10.491Z,76
2016-12-04T06:23:20.184Z,88
2016-12-04T06:24:29.881Z,100
2016-12-04T06:25:39.894Z,108
2016-12-04T06:26:50.221Z,120
2016-12-04T06:28:00.593Z,132
2016-12-04T06:29:10.924Z,144
2016-12-04T06:30:21.246Z,164
2016-12-04T06:31:31.252Z,172
2016-12-04T06:32:41.574Z,192
2016-12-04T06:33:51.911Z,208
2016-12-04T06:35:01.918Z,224
2016-12-04T06:36:12.234Z,248
2016-12-04T06:37:22.566Z,272
2016-12-04T06:38:32.905Z,300
2016-12-04T06:39:42.915Z,324
2016-12-04T06:40:52.607Z,352
2016-12-04T06:42:02.931Z,380
2016-12-04T06:43:13.254Z,408
2016-12-04T06:44:23.268Z,432
2016-12-04T06:45:32.963Z,456
2016-12-04T06:46:43.011Z,488
2016-12-04T06:47:53.027Z,516
2016-12-04T06:49:03.036Z,552
2016-12-04T06:50:13.356Z,588
2016-12-04T06:51:23.363Z,624
2016-12-04T06:52:33.084Z,652
2016-12-04T06:53:43.401Z,684
2016-12-04T06:54:53.767Z,744
2016-12-04T06:56:04.100Z,808
2016-12-04T06:57:13.780Z,848
2016-12-04T06:58:24.103Z,888
2016-12-04T06:59:34.417Z,928
2016-12-04T07:00:44.777Z,940
2016-12-04T07:01:54.792Z,912
2016-12-04T07:03:05.120Z,860
2016-12-04T07:04:15.441Z,836
2016-12-04T07:05:25.461Z,840
2016-12-04T07:06:35.471Z,852
2016-12-04T07:07:45.799Z,864
2016-12-04T07:08:56.134Z,876
2016-12-04T07:10:06.455Z,896
2016-12-04T07:11:16.487Z,912
2016-12-04T07:12:26.499Z,936
2016-12-04T07:13:36.520Z,960
2016-12-04T07:14:46.527Z,988
2016-12-04T07:15:56.227Z,1020
2016-12-04T07:17:05.923Z,1052
2016-12-04T07:18:15.936Z,1096
2016-12-04T07:19:25.977Z,1140
2016-12-04T07:20:35.675Z,1188
2016-12-04T07:21:45.372Z,1240
2016-12-04T07:22:55.416Z,1284
2016-12-04T07:24:05.736Z,1332
2016-12-04T07:25:16.067Z,1372
2016-12-04T07:26:26.402Z,1412
2016-12-04T07:27:36.724Z,1448
2016-12-04T07:28:46.744Z,1480
2016-12-04T07:29:57.098Z,1512
2016-12-04T07:31:06.803Z,1548
2016-12-04T07:32:17.134Z,1588
2016-12-04T07:33:27.457Z,1620
2016-12-04T07:34:37.168Z,1648
2016-12-04T07:35:47.500Z,1716
2016-12-04T07:36:57.196Z,1696
2016-12-04T07:38:06.903Z,1704
2016-12-04T07:39:17.210Z,1700
2016-12-04T07:40:27.527Z,1668
2016-12-04T07:41:37.528Z,1644
2016-12-04T07:42:47.224Z,1652
2016-12-04T07:43:57.241Z,1680
2016-12-04T07:45:07.563Z,1712
2016-12-04T07:46:17.889Z,1720
2016-12-04T07:47:27.910Z,1744
2016-12-04T07:48:38.220Z,1772
2016-12-04T07:49:48.237Z,1808
2016-12-04T07:50:57.936Z,1848
2016-12-04T07:52:07.961Z,1892
2016-12-04T07:53:18.292Z,1928
2016-12-04T07:54:28.616Z,1956
2016-12-04T07:55:38.633Z,1992
2016-12-04T07:56:48.964Z,2028
2016-12-04T07:57:59.293Z,2060
2016-12-04T07:59:09.623Z,2088
2016-12-04T08:00:19.658Z,2108
2016-12-04T08:01:29.993Z,2120
2016-12-04T08:02:39.998Z,2120
2016-12-04T08:03:50.010Z,2116
2016-12-04T08:05:00.337Z,2116
2016-12-04T08:06:10.676Z,2128
2016-12-04T08:07:20.927Z,2180
2016-12-04T08:08:31.263Z,2272
2016-12-04T08:09:40.964Z,2168
2016-12-04T08:10:51.292Z,2240
2016-12-04T08:12:01.308Z,2228
2016-12-04T08:13:11.639Z,2244
2016-12-04T08:14:21.960Z,2260
2016-12-04T08:15:32.289Z,2344
2016-12-04T08:16:42.622Z,2384
2016-12-04T08:17:52.646Z,2372
2016-12-04T08:19:02.665Z,2376
2016-12-04T08:20:12.675Z,2348
2016-12-04T08:21:22.688Z,2308
2016-12-04T08:22:33.014Z,2344
2016-12-04T08:23:43.325Z,2412
2016-12-04T08:24:53.638Z,2408
2016-12-04T08:26:03.970Z,2468
2016-12-04T08:27:14.315Z,2540
2016-12-04T08:28:24.358Z,2596
2016-12-04T08:29:34.375Z,2560
2016-12-04T08:30:44.695Z,2512
2016-12-04T08:31:55.029Z,2684
2016-12-04T08:33:05.396Z,2892
2016-12-04T08:34:15.727Z,3080
2016-12-04T08:35:25.444Z,3128
2016-12-04T08:36:35.779Z,3032
2016-12-04T08:37:45.807Z,3256
2016-12-04T08:38:56.128Z,3856
2016-12-04T08:40:06.165Z,4056
2016-12-04T08:41:16.183Z,4204
2016-12-04T08:42:26.530Z,4216
2016-12-04T08:43:36.860Z,4200
2016-12-04T08:44:47.184Z,4000
2016-12-04T08:45:57.215Z,3876
2016-12-04T08:47:07.241Z,3888
2016-12-04T08:48:17.252Z,4204
2016-12-04T08:49:27.254Z,3840
2016-12-04T08:50:36.657Z,3768
2016-12-04T08:51:46.696Z,4192
2016-12-04T08:52:56.398Z,4304
2016-12-04T08:54:05.791Z,4624
2016-12-04T08:55:15.823Z,5116
2016-12-04T08:56:26.147Z,5272
2016-12-04T08:57:36.158Z,5440
2016-12-04T08:58:46.479Z,5620
2016-12-04T08:59:56.478Z,5880
2016-12-04T09:01:06.488Z,6048
2016-12-04T09:02:16.809Z,5820
2016-12-04T09:03:27.124Z,5048
2016-12-04T09:04:37.478Z,4736
2016-12-04T09:05:47.795Z,4756
2016-12-04T09:06:58.110Z,4840
2016-12-04T09:08:08.422Z,5332
2016-12-04T09:09:18.119Z,5504
2016-12-04T09:10:28.127Z,4968
2016-12-04T09:11:38.151Z,4948
2016-12-04T09:12:48.464Z,4692
2016-12-04T09:13:58.178Z,4624
2016-12-04T09:15:08.507Z,4948
2016-12-04T09:16:18.843Z,4644
2016-12-04T09:17:28.862Z,4576
2016-12-04T09:18:38.866Z,4704
2016-12-04T09:19:49.188Z,4620
2016-12-04T09:20:59.517Z,4180
2016-12-04T09:22:09.543Z,4504
2016-12-04T09:23:19.235Z,4540
2016-12-04T09:24:29.571Z,4824
2016-12-04T09:25:39.587Z,4916
2016-12-04T09:26:49.929Z,4540
2016-12-04T09:28:00.258Z,4564
2016-12-04T09:29:10.588Z,4528
2016-12-04T09:30:20.605Z,4768
2016-12-04T09:31:30.932Z,4748
2016-12-04T09:32:40.989Z,4720
2016-12-04T09:33:51.049Z,4776
2016-12-04T09:35:00.742Z,4868
2016-12-04T09:36:10.143Z,4688
2016-12-04T09:37:20.184Z,4652
2016-12-04T09:38:30.517Z,4900
2016-12-04T09:39:39.913Z,4756
2016-12-04T09:40:49.951Z,4652
2016-12-04T09:42:00.278Z,4620
2016-12-04T09:43:10.304Z,4636
2016-12-04T09:44:20.353Z,4616
2016-12-04T09:45:30.378Z,4696
2016-12-04T09:46:40.743Z,4924
2016-12-04T09:47:50.767Z,5004
2016-12-04T09:49:01.090Z,5484
2016-12-04T09:50:11.108Z,5668
2016-12-04T09:51:20.810Z,5580
2016-12-04T09:52:31.149Z,5456
2016-12-04T09:53:41.474Z,5264
2016-12-04T09:54:51.488Z,5272
2016-12-04T09:56:01.209Z,5288
2016-12-04T09:57:11.244Z,5244
2016-12-04T09:58:21.271Z,5240
2016-12-04T09:59:31.296Z,5088
2016-12-04T10:00:41.635Z,5036
2016-12-04T10:01:51.350Z,4912
2016-12-04T10:03:01.344Z,4656
2016-12-04T10:04:10.531Z,4676
2016-12-04T10:05:20.881Z,4704
2016-12-04T10:06:30.587Z,4728
2016-12-04T10:07:40.599Z,4764
2016-12-04T10:08:51.148Z,4740
2016-12-04T10:10:01.497Z,4756
2016-12-04T10:11:11.511Z,4872
2016-12-04T10:12:21.945Z,5112
2016-12-04T10:13:32.279Z,5268
2016-12-04T10:14:42.325Z,5544
2016-12-04T10:15:52.351Z,5704
2016-12-04T10:17:02.681Z,5624
2016-12-04T10:18:13.015Z,5416
2016-12-04T10:19:23.051Z,5288
2016-12-04T10:20:33.380Z,5180
2016-12-04T10:21:43.700Z,5000
2016-12-04T10:22:53.420Z,4940
2016-12-04T10:24:03.749Z,4924
2016-12-04T10:25:14.089Z,4972
2016-12-04T10:26:24.111Z,4904
2016-12-04T10:27:34.432Z,4996
2016-12-04T10:28:44.441Z,4888
2016-12-04T10:29:54.453Z,4844
2016-12-04T10:31:04.469Z,4896
2016-12-04T10:32:14.189Z,4904
2016-12-04T10:33:23.888Z,4920
2016-12-04T10:34:33.902Z,4984
2016-12-04T10:35:43.911Z,4676
2016-12-04T10:36:53.917Z,4640
2016-12-04T10:38:03.624Z,4716
2016-12-04T10:39:13.632Z,4756
2016-12-04T10:40:23.973Z,4872
2016-12-04T10:41:34.330Z,4796
2016-12-04T10:42:44.647Z,4748
2016-12-04T10:43:54.652Z,4740
2016-12-04T10:45:04.979Z,4792
2016-12-04T10:46:15.311Z,4788
2016-12-04T10:47:25.654Z,4876
2016-12-04T10:48:35.665Z,4868
2016-12-04T10:49:45.697Z,4904
2016-12-04T10:50:55.734Z,4932
2016-12-04T10:52:05.449Z,5200
2016-12-04T10:53:15.792Z,5292
2016-12-04T10:54:25.825Z,5224
2016-12-04T10:55:36.145Z,5304
2016-12-04T10:56:46.156Z,5256
2016-12-04T10:57:56.168Z,5304
2016-12-04T10:59:06.176Z,5308
2016-12-04T11:00:16.506Z,5080
2016-12-04T11:01:26.823Z,4992
2016-12-04T11:02:36.831Z,4940
2016-12-04T11:03:46.848Z,4820
2016-12-04T11:04:57.179Z,4804
2016-12-04T11:06:07.204Z,4688
2016-12-04T11:07:17.538Z,4736
2016-12-04T11:08:27.553Z,4732
2016-12-04T11:09:37.590Z,4644
2016-12-04T11:10:47.927Z,4496
2016-12-04T11:18:46.378Z,3936
2016-12-04T11:19:56.718Z,3988
2016-12-04T11:21:07.036Z,3944
2016-12-04T11:22:17.063Z,3988
2016-12-04T11:23:27.391Z,4008
2016-12-04T11:24:37.728Z,3888
2016-12-04T11:25:48.067Z,3824
2016-12-04T11:26:58.405Z,3756
2016-12-04T11:28:08.421Z,3732
2016-12-04T11:29:18.752Z,3696
2016-12-04T11:30:29.073Z,3704
2016-12-04T11:31:39.102Z,3692
2016-12-04T11:32:48.818Z,3752
2016-12-04T11:33:58.845Z,3756
2016-12-04T11:35:08.891Z,3812
2016-12-04T11:36:19.232Z,3916
2016-12-04T11:37:28.955Z,4048
2016-12-04T11:38:38.676Z,4456
2016-12-04T11:39:48.714Z,4604
2016-12-04T11:40:58.420Z,4660
2016-12-04T11:42:08.772Z,4584
2016-12-04T11:43:19.107Z,4540
2016-12-04T11:44:29.452Z,4336
2016-12-04T11:45:39.472Z,4664
2016-12-04T11:46:49.798Z,4632
2016-12-04T11:48:00.131Z,4872
2016-12-04T11:49:10.466Z,5104
2016-12-04T11:50:20.183Z,5340
2016-12-04T11:51:30.190Z,5292
2016-12-04T11:52:40.537Z,5184
2016-12-04T11:53:50.883Z,5660
2016-12-04T11:55:00.593Z,5448
2016-12-04T11:56:10.603Z,5284
2016-12-04T11:57:20.299Z,5180
2016-12-04T11:58:30.630Z,5004
2016-12-04T11:59:40.667Z,4780
2016-12-04T12:00:51.003Z,4744
2016-12-04T12:02:01.345Z,4868
2016-12-04T12:03:11.687Z,4696
2016-12-04T12:04:22.008Z,4560
2016-12-04T12:05:32.060Z,4312
2016-12-04T12:06:42.082Z,4280
2016-12-04T12:07:52.421Z,4364
2016-12-04T12:09:02.762Z,4456
2016-12-04T12:10:12.773Z,4356
2016-12-04T12:11:22.808Z,4344
2016-12-04T12:12:33.163Z,4280
2016-12-04T12:13:43.183Z,4176
2016-12-04T12:14:53.513Z,4000
2016-12-04T12:16:03.908Z,4068
2016-12-04T12:17:14.248Z,4292
2016-12-04T12:18:24.585Z,4368
2016-12-04T12:19:34.612Z,4244
2016-12-04T12:20:44.336Z,3988
2016-12-04T12:21:54.355Z,3844
2016-12-04T12:23:04.368Z,3824
2016-12-04T12:24:14.727Z,3996
2016-12-04T12:25:24.740Z,3884
2016-12-04T12:26:35.078Z,3836
2016-12-04T12:27:45.419Z,3748
2016-12-04T12:28:55.765Z,3736
2016-12-04T12:30:05.815Z,3624
2016-12-04T12:31:16.145Z,3500
2016-12-04T12:32:25.860Z,3448
2016-12-04T12:33:36.206Z,3388
2016-12-04T12:34:46.226Z,3332
2016-12-04T12:35:56.565Z,3264
2016-12-04T12:37:06.605Z,3180
2016-12-04T12:38:16.946Z,3124
2016-12-04T12:39:26.960Z,3060
2016-12-04T12:40:36.996Z,3000
2016-12-04T12:41:47.331Z,2928
2016-12-04T12:42:57.361Z,2860
2016-12-04T12:44:07.375Z,2776
2016-12-04T12:45:17.729Z,2704
2016-12-04T12:46:27.740Z,2632
2016-12-04T12:47:38.086Z,2564
2016-12-04T12:48:48.403Z,2472
2016-12-04T12:49:57.793Z,2380
2016-12-04T12:51:07.801Z,2296
2016-12-04T12:52:17.830Z,2224
2016-12-04T12:53:28.159Z,2152
2016-12-04T12:54:38.179Z,2096
2016-12-04T12:55:48.516Z,2040
2016-12-04T12:56:58.214Z,1992
2016-12-04T12:58:08.565Z,1956
2016-12-04T12:59:18.573Z,1920
2016-12-04T13:00:28.270Z,1884
2016-12-04T13:01:38.608Z,1868
2016-12-04T13:02:48.309Z,1848
2016-12-04T13:03:58.693Z,1816
2016-12-04T13:05:08.739Z,1776
2016-12-04T13:06:18.767Z,1732
2016-12-04T13:07:29.002Z,1684
2016-12-04T13:08:39.344Z,1644
2016-12-04T13:09:49.066Z,1608
2016-12-04T13:10:59.404Z,1576
2016-12-04T13:12:09.432Z,1540
2016-12-04T13:13:19.450Z,1508
2016-12-04T13:14:29.476Z,1484
2016-12-04T13:15:39.478Z,1464
2016-12-04T13:16:49.805Z,1444
2016-12-04T13:18:00.136Z,1424
2016-12-04T13:19:10.491Z,1412
2016-12-04T13:20:20.519Z,1400
2016-12-04T13:21:30.552Z,1392
2016-12-04T13:22:40.566Z,1384
2016-12-04T13:23:50.250Z,1376
2016-12-04T13:25:00.596Z,1372
2016-12-04T13:26:10.927Z,1360
2016-12-04T13:27:20.968Z,1352
2016-12-04T13:28:31.291Z,1336
2016-12-04T13:29:41.662Z,1316
2016-12-04T13:30:51.709Z,1304
2016-12-04T13:32:02.036Z,1300
2016-12-04T13:33:12.376Z,1288
2016-12-04T13:34:22.708Z,1284
2016-12-04T13:35:32.740Z,1304
2016-12-04T13:36:43.072Z,1324
2016-12-04T13:37:53.409Z,1296
2016-12-04T13:39:03.745Z,1252
2016-12-04T13:40:14.072Z,1236
2016-12-04T13:41:24.113Z,1228
2016-12-04T13:42:34.458Z,1220
2016-12-04T13:43:44.788Z,1204
2016-12-04T13:44:54.797Z,1188
2016-12-04T13:46:04.573Z,1176
2016-12-04T13:47:14.293Z,1172
2016-12-04T13:48:24.612Z,1172
2016-12-04T13:49:34.616Z,1152
2016-12-04T13:50:44.952Z,1160
2016-12-04T13:51:54.967Z,1164
2016-12-04T13:53:04.968Z,1144
2016-12-04T13:54:14.984Z,1140
2016-12-04T13:55:25.002Z,1168
2016-12-04T13:56:35.028Z,1176
2016-12-04T13:57:45.064Z,1148
2016-12-04T13:58:55.402Z,1216
2016-12-04T14:00:05.100Z,1216
2016-12-04T14:01:15.130Z,1084
2016-12-04T14:02:25.164Z,1060
2016-12-04T14:03:34.923Z,1072
2016-12-04T14:04:44.956Z,1068
2016-12-04T14:05:54.365Z,1088
2016-12-04T14:07:04.694Z,1136
2016-12-04T14:08:15.044Z,1152
2016-12-04T14:09:25.378Z,1080
2016-12-04T14:10:35.710Z,1056
2016-12-04T14:11:45.727Z,1116
2016-12-04T14:12:55.748Z,1104
2016-12-04T14:14:05.780Z,1096
2016-12-04T14:15:16.149Z,1148
2016-12-04T14:16:25.859Z,1192
2016-12-04T14:17:36.176Z,1160
2016-12-04T14:18:46.193Z,1124
2016-12-04T14:19:56.505Z,1072
2016-12-04T14:21:06.546Z,1036
2016-12-04T14:22:16.570Z,1000
2016-12-04T14:23:26.604Z,968
2016-12-04T14:24:36.933Z,936
2016-12-04T14:25:47.259Z,888
2016-12-04T14:26:57.589Z,848
2016-12-04T14:28:06.978Z,816
2016-12-04T14:29:17.328Z,772
2016-12-04T14:30:27.666Z,740
2016-12-04T14:31:37.370Z,716
2016-12-04T14:32:47.929Z,696
2016-12-04T14:33:58.267Z,664
2016-12-04T14:35:08.328Z,628
2016-12-04T14:36:18.349Z,592
2016-12-04T14:37:28.367Z,556
2016-12-04T14:38:38.384Z,528
2016-12-04T14:39:48.706Z,492
2016-12-04T14:40:58.717Z,464
2016-12-04T14:42:08.440Z,440
2016-12-04T14:43:18.166Z,420
2016-12-04T14:44:27.552Z,392
2016-12-04T14:45:37.565Z,364
2016-12-04T14:46:46.981Z,344
2016-12-04T14:47:57.003Z,328
2016-12-04T14:49:07.040Z,304
2016-12-04T14:50:17.072Z,292
2016-12-04T14:51:27.100Z,272
2016-12-04T14:52:37.126Z,256
2016-12-04T14:53:47.383Z,240
2016-12-04T14:54:57.718Z,224
2016-12-04T14:56:07.750Z,212
2016-12-04T14:57:18.081Z,196
2016-12-04T14:58:28.090Z,184
2016-12-04T14:59:38.411Z,168
2016-12-04T15:00:48.418Z,152
2016-12-04T15:01:58.747Z,136
2016-12-04T15:03:09.076Z,124
2016-12-04T15:04:19.089Z,112
2016-12-04T15:05:29.090Z,100
2016-12-04T15:06:38.812Z,88
2016-12-04T15:07:48.838Z,80
2016-12-04T15:08:59.160Z,68
2016-12-04T15:10:09.201Z,60
2016-12-04T15:11:19.546Z,52
2016-12-04T15:12:29.571Z,44
2016-12-04T15:13:39.961Z,36
2016-12-04T15:14:50.295Z,32
2016-12-04T15:16:00.615Z,28
2016-12-04T15:17:10.634Z,24
2016-12-04T15:18:20.974Z,20
2016-12-04T15:19:31.302Z,16
2016-12-04T15:20:41.633Z,12
2016-12-04T15:21:51.973Z,8
2016-12-04T15:23:02.008Z,8
2016-12-04T15:24:12.050Z,8
2016-12-04T15:25:22.372Z,8
2016-12-04T15:26:32.395Z,8
2016-12-04T15:27:42.752Z,8
2016-12-04T15:28:52.780Z,4
2016-12-04T15:30:02.795Z,4
2016-12-04T15:31:12.810Z,0
2016-12-04T15:32:23.177Z,4
2016-12-04T15:33:33.514Z,4
2016-12-04T15:34:43.845Z,0
2016-12-04T15:35:54.187Z,4
2016-12-04T15:37:04.205Z,4
2016-12-04T15:38:14.542Z,4
2016-12-04T15:39:24.534Z,0
2016-12-04T15:40:33.934Z,0
2016-12-04T15:41:44.273Z,0
2016-12-04T15:42:54.307Z,0
2016-12-04T15:44:04.656Z,0
2016-12-04T15:45:14.665Z,0
2016-12-04T15:46:24.997Z,0
2016-12-04T15:47:35.010Z,0
2016-12-04T15:48:44.702Z,0
2016-12-04T15:49:55.014Z,0
2016-12-04T15:51:05.056Z,0
2016-12-04T15:52:15.082Z,0
2016-12-04T15:53:25.135Z,0
2016-12-04T15:54:35.154Z,0
2016-12-04T15:55:45.552Z,0
2016-12-04T15:56:55.879Z,0
2016-12-04T15:58:06.218Z,0
2016-12-04T15:59:16.252Z,0
2016-12-04T16:00:26.564Z,0
2016-12-04T16:01:36.921Z,0
2016-12-04T16:02:46.937Z,0
2016-12-04T16:03:56.967Z,0
2016-12-04T16:05:06.687Z,0
2016-12-04T16:06:16.702Z,0
2016-12-04T16:07:27.043Z,0
2016-12-04T16:08:37.385Z,0
2016-12-04T16:09:47.432Z,0
2016-12-04T16:10:57.779Z,0
2016-12-04T16:12:07.811Z,0
2016-12-04T16:13:17.510Z,0
2016-12-04T16:14:27.829Z,0
2016-12-04T16:15:37.851Z,0
2016-12-04T16:16:47.553Z,0
2016-12-04T16:17:57.571Z,0
2016-12-04T16:19:07.622Z,0
2016-12-04T16:20:17.944Z,0
2016-12-04T16:21:28.265Z,0
2016-12-04T16:22:38.596Z,0
2016-12-04T16:23:48.942Z,0
2016-12-04T16:24:59.279Z,0
2016-12-04T16:26:09.001Z,0
2016-12-04T16:27:18.703Z,0
2016-12-04T16:28:28.729Z,0
2016-12-04T16:29:38.450Z,0
2016-12-04T16:30:48.460Z,0
2016-12-04T16:31:58.814Z,0
2016-12-04T16:33:09.168Z,0
2016-12-04T16:34:19.195Z,0
2016-12-04T16:35:29.525Z,0
2016-12-04T16:36:39.864Z,0
2016-12-04T16:37:50.206Z,0
2016-12-04T16:39:00.520Z,0
2016-12-04T16:40:10.559Z,0
2016-12-04T16:41:20.893Z,0
2016-12-04T16:42:30.590Z,0
2016-12-04T16:43:40.597Z,0
2016-12-04T16:44:50.616Z,0
2016-12-04T16:46:00.650Z,0
2016-12-04T16:47:10.666Z,0
2016-12-04T16:48:20.378Z,0
2016-12-04T16:49:30.715Z,0
2016-12-04T16:50:40.462Z,0
2016-12-04T16:51:50.784Z,0
2016-12-04T16:53:01.149Z,0
2016-12-04T16:54:11.481Z,0
2016-12-04T16:55:21.852Z,0
2016-12-04T16:56:32.180Z,0
2016-12-04T16:57:41.895Z,0
2016-12-04T16:58:52.224Z,0